Time;durP1;ratioP1;P1;durP2;ratioP2;P2;SDS_P1;SDS_P2;PMS_P1;PMS_P2;Temp;Humidity;BMP_temperature;BMP_pressure;BME280_temperature;BME280_humidity;BME280_pressure;Samples;Min_cycle;Max_cycle;Signal;HPM_P1;HPM_P2
2021/12/13 00:01:37;;;;;;;9.68;5.55;;;;;;;3.20;85.08;99122.06;1677880;84;21123;-81
2021/12/13 00:04:23;;;;;;;11.03;5.35;;;;;;;3.18;84.99;99126.34;1698767;83;21067;-83
2021/12/13 00:06:58;;;;;;;10.30;5.10;;;;;;;3.20;85.14;99131.05;1690993;83;20977;-82
2021/12/13 00:09:27;;;;;;;8.43;4.90;;;;;;;3.16;85.09;99130.20;1693892;82;21070;-84
2021/12/13 00:11:59;;;;;;;11.65;5.03;;;;;;;3.17;84.61;99133.63;1708283;81;21028;-84
2021/12/13 00:14:33;;;;;;;13.78;6.05;;;;;;;3.19;85.12;99130.64;1694300;83;21036;-84
2021/12/13 00:17:10;;;;;;;12.35;6.20;;;;;;;3.18;84.95;99133.64;1664103;83;21087;-83
2021/12/13 00:19:42;;;;;;;11.88;5.87;;;;;;;3.14;84.58;99132.31;1683272;85;21156;-82
2021/12/13 00:22:14;;;;;;;11.70;6.12;;;;;;;3.15;84.57;99140.47;1662401;83;21060;-83
2021/12/13 00:24:45;;;;;;;11.30;5.20;;;;;;;3.11;84.47;99142.15;1699322;83;20996;-83
2021/12/13 00:27:19;;;;;;;9.83;5.08;;;;;;;3.11;84.55;99145.16;1690166;82;21026;-82
2021/12/13 00:30:00;;;;;;;12.15;5.15;;;;;;;3.06;84.76;99149.39;1704942;80;21020;-84
2021/12/13 00:32:56;;;;;;;12.60;5.80;;;;;;;3.08;84.97;99157.53;1691677;82;20981;-82
2021/12/13 00:35:28;;;;;;;12.15;5.70;;;;;;;3.04;84.88;99153.23;1712992;80;21012;-83
2021/12/13 00:38:03;;;;;;;8.33;4.62;;;;;;;3.08;84.93;99161.81;1702356;82;21044;-83
2021/12/13 00:40:41;;;;;;;11.20;5.37;;;;;;;3.10;85.12;99158.83;1683289;80;21040;-82
2021/12/13 00:43:31;;;;;;;8.78;4.90;;;;;;;3.08;84.96;99155.40;1662571;86;21059;-82
2021/12/13 00:46:02;;;;;;;10.55;5.40;;;;;;;3.14;84.89;99161.85;1704471;83;21024;-83
2021/12/13 00:48:32;;;;;;;9.60;4.75;;;;;;;3.07;84.41;99154.98;1672210;84;21000;-81
2021/12/13 00:51:26;;;;;;;9.63;5.25;;;;;;;3.10;84.67;99157.55;1691702;81;21039;-82
2021/12/13 00:53:56;;;;;;;9.80;5.80;;;;;;;3.08;84.33;99156.25;1638526;86;21016;-82
2021/12/13 00:56:57;;;;;;;9.30;4.47;;;;;;;3.05;84.18;99168.23;1661831;83;21038;-82
2021/12/13 00:59:31;;;;;;;8.53;4.87;;;;;;;3.01;84.07;99165.22;1669023;84;20980;-81
2021/12/13 01:02:21;;;;;;;9.88;5.10;;;;;;;3.01;84.14;99167.78;1713494;83;21320;-84
2021/12/13 01:04:56;;;;;;;6.80;4.55;;;;;;;3.01;84.14;99171.64;1682739;83;21007;-83
2021/12/13 01:07:54;;;;;;;8.78;4.72;;;;;;;3.01;83.95;99176.78;1689274;84;20993;-86
2021/12/13 01:10:57;;;;;;;8.43;5.05;;;;;;;2.98;83.95;99172.45;1671556;86;21717;-83
2021/12/13 01:13:41;;;;;;;9.58;5.90;;;;;;;2.97;84.27;99170.32;1663391;85;21052;-84
2021/12/13 01:22:00;;;;;;;11.12;5.17;;;;;;;3.01;83.76;99169.07;1687251;84;21248;-82
2021/12/13 01:25:03;;;;;;;9.48;4.85;;;;;;;2.96;83.66;99169.90;1672439;83;21046;-83
2021/12/13 01:27:10;;;;;;;10.48;5.12;;;;;;;2.95;83.62;99171.17;1676985;84;21028;-83
2021/12/13 01:29:37;;;;;;;8.73;4.85;;;;;;;2.93;83.77;99173.72;1692127;84;21073;-83
2021/12/13 01:32:08;;;;;;;10.75;4.80;;;;;;;2.95;83.97;99177.16;1692709;84;21048;-83
2021/12/13 01:34:37;;;;;;;9.55;4.92;;;;;;;2.98;84.12;99179.77;1693714;84;21013;-82
2021/12/13 01:37:17;;;;;;;11.15;4.78;;;;;;;3.00;84.23;99179.75;1679778;83;20973;-84
2021/12/13 01:39:48;;;;;;;9.05;4.92;;;;;;;3.00;84.10;99187.45;1690280;84;21064;-82
2021/12/13 01:42:20;;;;;;;9.55;5.25;;;;;;;3.05;84.13;99187.50;1675967;84;21068;-83
2021/12/13 01:44:51;;;;;;;9.58;5.45;;;;;;;3.04;83.80;99184.48;1656963;86;21024;-83
2021/12/13 01:47:23;;;;;;;8.90;4.90;;;;;;;3.01;83.74;99187.05;1684503;84;21017;-83
2021/12/13 01:50:07;;;;;;;9.63;5.10;;;;;;;3.01;83.55;99190.91;1700822;84;21008;-83
2021/12/13 01:52:36;;;;;;;;;;;;;;;2.99;83.56;99187.88;1663983;85;20981;-83
2021/12/13 01:55:17;;;;;;;9.85;4.42;;;;;;;2.98;83.11;99187.47;1676318;83;20126;-84
2021/12/13 01:57:53;;;;;;;7.90;4.55;;;;;;;2.97;83.19;99186.16;1677900;85;21020;-83
2021/12/13 02:00:43;;;;;;;14.35;4.90;;;;;;;2.95;83.16;99187.86;1720134;82;20983;-81
2021/12/13 02:02:55;;;;;;;8.08;4.53;;;;;;;2.94;83.18;99192.11;1698368;84;21019;-83
2021/12/13 02:05:27;;;;;;;9.90;4.60;;;;;;;2.97;83.08;99193.44;1701637;83;21270;-81
2021/12/13 02:08:13;;;;;;;9.93;4.80;;;;;;;3.00;83.17;99193.87;1701764;83;21044;-84
2021/12/13 02:10:48;;;;;;;7.90;5.08;;;;;;;3.02;83.01;99192.61;1704916;83;21015;-82
2021/12/13 02:13:25;;;;;;;9.98;5.20;;;;;;;2.99;83.19;99196.88;1700870;84;21018;-81
2021/12/13 02:18:49;;;;;;;10.75;5.50;;;;;;;2.93;82.78;99194.27;1685498;84;21051;-82
2021/12/13 02:21:28;;;;;;;7.67;4.78;;;;;;;2.91;82.89;99197.25;1698383;84;20976;-84
2021/12/13 02:23:57;;;;;;;11.70;4.92;;;;;;;2.87;83.03;99189.52;1662444;83;21008;-84
2021/12/13 02:26:27;;;;;;;8.55;4.70;;;;;;;2.89;83.04;99193.81;1695601;83;20968;-83
2021/12/13 02:29:02;;;;;;;8.33;5.03;;;;;;;2.88;83.29;99188.22;1699673;82;20991;-83
2021/12/13 02:31:34;;;;;;;9.40;4.75;;;;;;;2.88;83.50;99188.22;1715445;82;20949;-83
2021/12/13 02:34:08;;;;;;;8.50;4.47;;;;;;;2.87;83.60;99192.94;1701206;82;21032;-83
2021/12/13 02:36:42;;;;;;;9.15;4.83;;;;;;;2.90;83.69;99196.80;1699455;83;20982;-83
2021/12/13 02:39:14;;;;;;;8.03;5.03;;;;;;;2.93;83.65;99201.97;1693321;82;20991;-83
2021/12/13 02:41:42;;;;;;;10.93;5.50;;;;;;;2.93;83.07;99199.40;1694722;84;21059;-83
2021/12/13 02:44:23;;;;;;;9.55;5.60;;;;;;;2.94;83.22;99201.10;1710000;83;20968;-84
2021/12/13 02:46:58;;;;;;;10.10;5.33;;;;;;;2.98;83.27;99204.56;1700297;83;20993;-83
2021/12/13 02:49:24;;;;;;;10.15;5.37;;;;;;;2.92;82.46;99207.94;1717670;82;20993;-84
2021/12/13 02:51:58;;;;;;;11.12;5.97;;;;;;;2.93;82.43;99212.23;1707592;83;21040;-82
2021/12/13 02:54:37;;;;;;;9.15;5.22;;;;;;;2.93;82.18;99207.53;1684653;83;21045;-82
2021/12/13 02:57:16;;;;;;;10.45;5.75;;;;;;;2.82;81.79;99214.29;1701526;83;20980;-83
2021/12/13 02:59:48;;;;;;;11.08;5.78;;;;;;;2.82;82.42;99218.14;1711816;83;21059;-83
2021/12/13 03:02:26;;;;;;;9.38;4.95;;;;;;;2.83;82.48;99219.44;1702672;81;21025;-83
2021/12/13 03:04:53;;;;;;;11.00;5.08;;;;;;;2.84;82.57;99224.14;1732996;83;21011;-83
2021/12/13 03:07:25;;;;;;;9.35;4.78;;;;;;;2.85;82.45;99217.75;1715489;82;20995;-82
2021/12/13 03:09:54;;;;;;;10.10;4.72;;;;;;;2.86;82.29;99214.74;1685778;83;21009;-83
2021/12/13 03:12:25;;;;;;;9.98;5.58;;;;;;;2.86;82.29;99218.16;1684518;85;21015;-83
2021/12/13 03:15:03;;;;;;;12.50;5.37;;;;;;;2.86;82.42;99216.87;1684471;84;21055;-83
2021/12/13 03:17:35;;;;;;;10.43;5.75;;;;;;;2.85;82.26;99223.31;1700763;84;20996;-83
2021/12/13 03:20:22;;;;;;;11.53;5.95;;;;;;;2.79;82.08;99227.97;1684332;85;21284;-83
2021/12/13 03:23:31;;;;;;;12.28;5.87;;;;;;;2.78;82.20;99223.66;1693982;84;21008;-83
2021/12/13 03:26:21;;;;;;;10.98;5.92;;;;;;;2.77;82.21;99225.38;1684075;84;21032;-82
2021/12/13 03:28:58;;;;;;;10.65;5.45;;;;;;;2.71;82.44;99224.05;1691473;83;21037;-84
2021/12/13 03:31:28;;;;;;;10.88;4.72;;;;;;;2.72;82.84;99232.60;1696225;83;21124;-84
2021/12/13 03:34:03;;;;;;;9.45;5.12;;;;;;;2.72;83.04;99224.47;1695368;84;21012;-82
2021/12/13 03:36:44;;;;;;;10.78;5.28;;;;;;;2.67;82.88;99233.00;1707754;82;21036;-84
2021/12/13 03:39:25;;;;;;;10.20;6.17;;;;;;;2.72;83.22;99232.60;1694907;83;20997;-82
2021/12/13 03:41:54;;;;;;;11.28;5.78;;;;;;;2.72;83.35;99242.88;1687412;84;21060;-82
2021/12/13 03:44:25;;;;;;;11.48;6.12;;;;;;;2.71;83.37;99241.16;1684487;85;21308;-83
2021/12/13 03:46:58;;;;;;;10.55;5.70;;;;;;;2.71;83.16;99242.45;1680935;85;21057;-84
2021/12/13 03:49:26;;;;;;;10.28;6.03;;;;;;;2.68;83.13;99247.11;1682317;85;21058;-81
2021/12/13 03:51:57;;;;;;;12.88;6.20;;;;;;;2.67;82.85;99247.98;1701203;83;21024;-82
2021/12/13 03:54:27;;;;;;;11.90;4.87;;;;;;;2.61;83.13;99249.61;1672559;85;21082;-82
2021/12/13 03:56:55;;;;;;;12.28;5.62;;;;;;;2.58;83.17;99253.02;1685592;84;20981;-83
2021/12/13 03:59:27;;;;;;;9.30;5.35;;;;;;;2.61;83.43;99261.16;1662579;85;21072;-83
2021/12/13 04:01:59;;;;;;;12.82;6.00;;;;;;;2.64;83.37;99256.06;1674423;84;21056;-85
2021/12/13 04:04:39;;;;;;;16.77;5.87;;;;;;;2.62;83.39;99270.16;1676260;84;21019;-84
2021/12/13 04:07:17;;;;;;;11.22;6.05;;;;;;;2.61;83.39;99262.44;1690256;84;20956;-82
2021/12/13 04:09:48;;;;;;;12.15;5.80;;;;;;;2.63;83.42;99259.49;1684986;83;21020;-82
2021/12/13 04:12:18;;;;;;;18.00;5.58;;;;;;;2.62;83.23;99261.61;1702413;83;21062;-83
2021/12/13 04:14:56;;;;;;;11.05;5.92;;;;;;;2.57;83.19;99268.84;1694253;84;21023;-83
2021/12/13 04:17:56;;;;;;;11.90;5.62;;;;;;;2.56;83.08;99263.69;1689600;84;21020;-84
2021/12/13 04:20:26;;;;;;;13.30;5.40;;;;;;;2.56;83.01;99272.23;1670281;85;21012;-83
2021/12/13 04:22:57;;;;;;;14.98;7.03;;;;;;;2.54;83.20;99276.50;1664963;84;21579;-84
2021/12/13 04:25:30;;;;;;;12.82;6.35;;;;;;;2.55;83.44;99266.69;1673777;85;21031;-84
2021/12/13 04:28:14;;;;;;;12.03;5.62;;;;;;;2.53;83.60;99273.51;1691607;84;21095;-81
2021/12/13 04:30:55;;;;;;;16.10;7.08;;;;;;;2.55;83.67;99276.09;1706517;83;21198;-83
2021/12/13 04:33:29;;;;;;;13.60;7.28;;;;;;;2.55;83.67;99269.68;1707734;84;21036;-81
2021/12/13 04:36:01;;;;;;;11.18;6.40;;;;;;;2.53;83.51;99273.94;1690765;84;21001;-83
2021/12/13 04:38:52;;;;;;;12.28;7.17;;;;;;;2.53;83.63;99277.36;1693114;83;21165;-83
2021/12/13 04:41:38;;;;;;;10.95;6.28;;;;;;;2.49;83.59;99276.89;1701781;84;21008;-82
2021/12/13 04:44:13;;;;;;;12.23;6.08;;;;;;;2.51;83.43;99282.91;1688968;84;20965;-83
2021/12/13 04:46:42;;;;;;;10.70;6.28;;;;;;;2.51;83.46;99276.91;1683976;84;21004;-85
2021/12/13 04:49:14;;;;;;;12.00;6.50;;;;;;;2.46;83.71;99281.12;1690731;84;20993;-84
2021/12/13 04:51:49;;;;;;;16.07;7.17;;;;;;;2.45;83.77;99273.86;1683938;84;21022;-84
2021/12/13 04:54:16;;;;;;;16.17;7.83;;;;;;;2.49;83.81;99280.73;1680725;84;21838;-84
2021/12/13 04:56:45;;;;;;;16.17;8.18;;;;;;;2.49;83.94;99283.31;1684098;84;21040;-82
2021/12/13 04:59:13;;;;;;;21.82;9.23;;;;;;;2.47;83.95;99285.43;1681823;84;21035;-83
2021/12/13 05:01:43;;;;;;;16.93;8.63;;;;;;;2.47;84.00;99294.41;1704611;84;21060;-82
2021/12/13 05:04:10;;;;;;;15.15;8.03;;;;;;;2.45;84.02;99297.35;1691976;84;20986;-82
2021/12/13 05:06:40;;;;;;;14.83;7.58;;;;;;;2.42;83.84;99290.48;1697085;83;21004;-81
2021/12/13 05:09:12;;;;;;;14.87;7.00;;;;;;;2.39;84.00;99299.45;1693210;84;21044;-83
2021/12/13 05:11:53;;;;;;;16.55;6.97;;;;;;;2.35;84.01;99302.41;1662646;84;21008;-84
2021/12/13 05:14:40;;;;;;;16.45;8.43;;;;;;;2.37;84.45;99298.58;1688560;84;21020;-83
2021/12/13 05:17:17;;;;;;;13.48;7.65;;;;;;;2.34;84.40;99303.23;1696198;84;20991;-82
2021/12/13 05:19:49;;;;;;;15.80;7.22;;;;;;;2.36;84.57;99302.83;1676589;84;21052;-83
2021/12/13 05:22:20;;;;;;;13.35;6.90;;;;;;;2.38;84.58;99304.13;1692555;84;20950;-83
2021/12/13 05:24:54;;;;;;;14.18;7.42;;;;;;;2.41;84.50;99299.05;1682763;85;21005;-83
2021/12/13 05:27:32;;;;;;;13.62;7.67;;;;;;;2.38;84.71;99300.28;1697187;84;21390;-82
2021/12/13 05:30:10;;;;;;;15.70;7.40;;;;;;;2.41;84.77;99299.45;1709633;84;21072;-82
2021/12/13 05:32:42;;;;;;;16.80;7.10;;;;;;;2.38;84.45;99304.98;1696789;84;21076;-83
2021/12/13 05:35:32;;;;;;;16.25;7.28;;;;;;;2.40;84.12;99308.86;1682617;84;21184;-82
2021/12/13 05:38:06;;;;;;;11.48;6.55;;;;;;;2.39;84.31;99316.13;1699253;83;20977;-82
2021/12/13 05:40:44;;;;;;;12.75;6.80;;;;;;;2.33;84.74;99315.64;1680338;84;21591;-83
2021/12/13 05:43:35;;;;;;;11.05;6.50;;;;;;;2.34;84.80;99317.34;1703804;84;21004;-83
2021/12/13 05:46:10;;;;;;;14.78;7.05;;;;;;;2.31;84.77;99328.87;1669046;84;21024;-80
2021/12/13 05:48:47;;;;;;;14.58;7.55;;;;;;;2.35;84.88;99331.05;1699571;83;21012;-83
2021/12/13 05:51:33;;;;;;;14.33;7.55;;;;;;;2.39;84.79;99332.81;1710681;83;21075;-83
2021/12/13 05:54:08;;;;;;;14.70;7.05;;;;;;;2.41;84.85;99334.09;1683786;84;21008;-84
2021/12/13 05:56:42;;;;;;;15.40;8.20;;;;;;;2.46;84.67;99334.59;1685569;83;21026;-82
2021/12/13 05:59:20;;;;;;;18.02;7.65;;;;;;;2.41;84.58;99341.39;1704385;83;21056;-83
2021/12/13 06:02:00;;;;;;;15.70;7.53;;;;;;;2.42;84.41;99352.08;1683347;84;21138;-83
2021/12/13 06:04:56;;;;;;;15.18;7.80;;;;;;;2.41;84.38;99349.09;1684170;82;21008;-82
2021/12/13 06:07:31;;;;;;;16.30;7.00;;;;;;;2.39;84.21;99354.19;1686248;82;21095;-82
2021/12/13 06:10:11;;;;;;;15.40;7.60;;;;;;;2.42;84.10;99350.80;1653970;84;21072;-83
2021/12/13 06:12:49;;;;;;;21.65;9.05;;;;;;;2.39;84.05;99340.52;1680774;84;20957;-82
2021/12/13 06:15:21;;;;;;;17.45;7.58;;;;;;;2.41;84.43;99357.19;1665797;84;21126;-83
2021/12/13 06:18:14;;;;;;;15.13;7.37;;;;;;;2.41;84.37;99357.19;1682126;82;21007;-84
2021/12/13 06:20:52;;;;;;;14.13;6.90;;;;;;;2.43;84.44;99358.06;1665559;84;21017;-84
2021/12/13 06:23:32;;;;;;;15.70;7.10;;;;;;;2.50;84.52;99365.00;1665276;85;21020;-83
2021/12/13 06:26:07;;;;;;;14.75;7.35;;;;;;;2.48;84.45;99364.98;1677599;84;21009;-85
2021/12/13 06:28:42;;;;;;;16.85;7.58;;;;;;;2.49;84.40;99367.14;1680152;85;21048;-81
2021/12/13 06:31:19;;;;;;;16.32;6.33;;;;;;;2.52;84.37;99372.30;1678995;85;21061;-82
2021/12/13 06:33:56;;;;;;;11.85;6.55;;;;;;;2.55;83.90;99370.63;1687049;81;20981;-82
2021/12/13 06:36:40;;;;;;;13.48;7.35;;;;;;;2.50;83.82;99384.25;1694614;82;21056;-82
2021/12/13 06:39:19;;;;;;;15.50;7.12;;;;;;;2.50;83.72;99383.82;1669304;84;21059;-82
2021/12/13 06:41:50;;;;;;;16.50;7.15;;;;;;;2.53;83.71;99386.44;1674371;84;21037;-82
2021/12/13 06:44:38;;;;;;;14.00;7.60;;;;;;;2.55;83.83;99388.60;1689578;84;20997;-81
2021/12/13 06:47:18;;;;;;;15.25;6.78;;;;;;;2.56;83.95;99393.30;1680090;84;21004;-87
2021/12/13 06:49:53;;;;;;;15.20;6.95;;;;;;;2.56;83.92;99390.30;1681318;84;21056;-83
2021/12/13 06:52:32;;;;;;;14.63;6.78;;;;;;;2.56;84.11;99401.00;1681379;81;21038;-84
2021/12/13 06:55:02;;;;;;;21.62;7.08;;;;;;;2.61;84.26;99402.33;1680026;82;21023;-83
2021/12/13 06:57:43;;;;;;;15.65;7.78;;;;;;;2.65;84.05;99407.97;1680601;85;21040;-82
2021/12/13 07:00:29;;;;;;;16.37;7.22;;;;;;;2.68;83.87;99407.56;1678827;82;21033;-83
2021/12/13 07:03:09;;;;;;;16.85;7.87;;;;;;;2.71;83.87;99408.89;1686874;81;21036;-82
2021/12/13 07:05:53;;;;;;;12.93;7.20;;;;;;;2.76;83.59;99414.07;1666152;84;21032;-81
2021/12/13 07:08:26;;;;;;;;;;;;;;;2.75;83.63;99413.65;1656555;81;20979;-83
2021/12/13 07:10:58;;;;;;;15.08;6.58;;;;;;;2.76;83.49;99412.78;1660877;85;20096;-88
2021/12/13 07:13:35;;;;;;;15.05;7.85;;;;;;;2.81;83.40;99409.86;1673869;81;21256;-85
2021/12/13 07:16:16;;;;;;;14.73;7.05;;;;;;;2.79;83.50;99411.55;1693478;80;21044;-88
2021/12/13 07:19:03;;;;;;;15.00;6.35;;;;;;;2.82;83.45;99413.28;1703524;81;21065;-83
2021/12/13 07:21:36;;;;;;;16.07;7.17;;;;;;;2.85;83.64;99416.75;1700331;83;21064;-81
2021/12/13 07:24:19;;;;;;;14.93;7.15;;;;;;;2.92;83.80;99419.81;1704810;80;20996;-83
2021/12/13 07:27:08;;;;;;;16.05;7.58;;;;;;;2.97;83.68;99422.45;1684802;80;21074;-82
2021/12/13 07:29:46;;;;;;;20.95;7.72;;;;;;;3.02;83.74;99427.20;1716687;83;21046;-80
2021/12/13 07:32:30;;;;;;;19.42;7.70;;;;;;;3.11;83.74;99431.16;1707781;82;21109;-82
2021/12/13 07:35:11;;;;;;;22.05;8.33;;;;;;;3.17;83.62;99431.22;1705611;83;20971;-89
2021/12/13 07:37:43;;;;;;;17.15;7.60;;;;;;;3.22;83.36;99432.53;1611333;88;21191;-79
2021/12/13 07:40:39;;;;;;;17.02;6.95;;;;;;;3.25;83.29;99430.02;1618471;88;21053;-81
2021/12/13 07:43:17;;;;;;;18.52;6.60;;;;;;;3.29;83.01;99434.77;1601058;87;21087;-82
2021/12/13 07:46:01;;;;;;;14.03;6.85;;;;;;;3.28;82.71;99440.33;1615683;87;21012;-82
2021/12/13 07:48:39;;;;;;;12.63;6.47;;;;;;;3.29;82.51;99439.91;1610129;88;20985;-81
2021/12/13 07:51:22;;;;;;;13.90;6.37;;;;;;;3.27;82.37;99443.73;1614447;88;21058;-82
2021/12/13 07:53:55;;;;;;;;;;;;;;;3.22;82.14;99445.39;1616685;86;21092;-84
2021/12/13 07:56:30;;;;;;;14.15;6.25;;;;;;;3.19;82.40;99444.09;1604606;88;20124;-86
2021/12/13 07:59:08;;;;;;;15.98;7.22;;;;;;;3.21;82.64;99446.25;1607041;88;21036;-81
2021/12/13 08:01:46;;;;;;;18.17;7.70;;;;;;;3.23;83.03;99450.98;1606822;88;21121;-83
2021/12/13 08:04:26;;;;;;;16.60;6.55;;;;;;;3.25;82.91;99451.85;1604207;89;21063;-84
2021/12/13 08:07:10;;;;;;;17.98;8.05;;;;;;;3.28;83.07;99448.05;1604715;88;21111;-82
2021/12/13 08:09:57;;;;;;;15.85;7.97;;;;;;;3.30;83.17;99451.89;1606456;85;21096;-83
2021/12/13 08:12:38;;;;;;;13.72;7.53;;;;;;;3.31;82.89;99460.05;1639360;85;22258;-88
2021/12/13 08:15:16;;;;;;;18.92;7.40;;;;;;;3.33;82.94;99464.35;1680745;83;21061;-85
2021/12/13 08:17:54;;;;;;;21.80;7.50;;;;;;;3.39;82.71;99468.27;1681836;84;21095;-83
2021/12/13 08:20:29;;;;;;;13.13;5.85;;;;;;;3.41;82.43;99463.58;1685233;82;21671;-89
2021/12/13 08:22:58;;;;;;;24.90;7.78;;;;;;;3.41;82.33;99470.86;1727996;81;21045;-81
2021/12/13 08:25:33;;;;;;;18.35;6.97;;;;;;;3.37;82.51;99461.39;1722501;81;21025;-81
2021/12/13 08:28:05;;;;;;;18.90;6.70;;;;;;;3.43;82.93;99464.02;1733361;81;20983;-84
2021/12/13 08:30:37;;;;;;;12.03;6.65;;;;;;;3.51;83.13;99473.95;1740436;81;20962;-82
2021/12/13 08:33:09;;;;;;;13.88;6.22;;;;;;;3.57;83.05;99474.00;1720680;80;21128;-86
2021/12/13 08:36:13;;;;;;;15.72;6.92;;;;;;;3.62;83.07;99475.35;1720618;80;21112;-85
2021/12/13 08:39:12;;;;;;;12.93;6.20;;;;;;;3.67;83.07;99467.23;1654271;86;21124;-81
2021/12/13 08:41:47;;;;;;;18.87;6.87;;;;;;;3.69;82.60;99464.69;1655886;85;21047;-84
2021/12/13 08:44:21;;;;;;;25.00;7.22;;;;;;;3.79;82.79;99468.63;1649287;87;21040;-81
2021/12/13 08:47:00;;;;;;;15.65;6.72;;;;;;;3.81;82.38;99471.65;1641971;86;21018;-82
2021/12/13 08:49:37;;;;;;;16.55;7.00;;;;;;;3.85;82.55;99472.95;1638536;86;21230;-83
2021/12/13 08:52:24;;;;;;;14.07;5.87;;;;;;;3.94;82.57;99467.90;1636200;86;21065;-82
2021/12/13 08:55:14;;;;;;;18.95;5.83;;;;;;;3.93;82.01;99462.73;1634693;88;21030;-83
2021/12/13 08:57:55;;;;;;;15.08;6.22;;;;;;;3.90;82.07;99461.41;1639806;85;21063;-84
2021/12/13 09:00:45;;;;;;;10.70;5.75;;;;;;;3.87;82.02;99461.41;1640409;86;21039;-84
2021/12/13 09:03:38;;;;;;;10.20;5.37;;;;;;;3.91;82.28;99461.86;1637752;85;21046;-84
2021/12/13 09:06:27;;;;;;;11.05;6.50;;;;;;;3.92;82.06;99461.88;1657746;81;21118;-78
2021/12/13 09:09:11;;;;;;;12.33;6.60;;;;;;;3.89;81.70;99460.98;1735347;80;21071;-86
2021/12/13 09:11:56;;;;;;;;;;;;;;;3.89;81.97;99457.12;1734894;80;21050;-84
2021/12/13 09:14:31;;;;;;;10.78;5.78;;;;;;;3.89;81.85;99449.41;1720190;81;20201;-89
2021/12/13 09:17:26;;;;;;;12.03;6.33;;;;;;;3.85;81.52;99457.96;1666503;85;21222;-81
2021/12/13 09:20:21;;;;;;;12.15;6.17;;;;;;;3.82;81.41;99451.48;1681812;79;21132;-87
2021/12/13 09:23:09;;;;;;;13.10;5.83;;;;;;;3.67;81.61;99444.09;1806994;77;21619;-90
2021/12/13 09:25:44;;;;;;;14.03;6.87;;;;;;;3.70;81.76;99446.70;1779164;79;21155;-87
2021/12/13 09:28:24;;;;;;;13.45;6.03;;;;;;;3.75;81.99;99439.02;1777779;77;21005;-84
2021/12/13 09:30:59;;;;;;;11.93;5.60;;;;;;;3.73;81.77;99438.14;1755701;77;21135;-86
2021/12/13 09:33:34;;;;;;;13.22;6.95;;;;;;;3.73;81.91;99431.28;1755357;80;21252;-83
2021/12/13 09:36:14;;;;;;;19.37;7.12;;;;;;;3.78;81.95;99426.20;1759453;81;20965;-83
2021/12/13 09:39:00;;;;;;;16.77;8.78;;;;;;;3.77;81.92;99427.88;1757993;80;21056;-83
2021/12/13 09:41:48;;;;;;;13.38;6.60;;;;;;;3.83;81.95;99420.64;1745771;80;21154;-92
2021/12/13 09:44:31;;;;;;;14.53;6.95;;;;;;;3.79;81.50;99422.33;1726108;78;21124;-89
2021/12/13 09:47:12;;;;;;;14.85;6.85;;;;;;;3.84;81.60;99425.36;1690475;82;21171;-85
2021/12/13 09:49:49;;;;;;;13.13;6.10;;;;;;;3.78;81.37;99424.91;1747278;78;21013;-85
2021/12/13 09:52:37;;;;;;;16.50;7.22;;;;;;;3.69;81.30;99432.55;1749166;80;21052;-81
2021/12/13 09:55:21;;;;;;;19.48;7.42;;;;;;;3.71;81.43;99432.98;1745862;80;21035;-81
2021/12/13 09:57:56;;;;;;;13.70;6.50;;;;;;;3.73;81.31;99432.57;1741869;82;21065;-80
2021/12/13 10:00:34;;;;;;;14.35;6.75;;;;;;;3.73;81.80;99439.00;1749660;79;21009;-88
2021/12/13 10:03:05;;;;;;;14.28;7.28;;;;;;;3.71;81.83;99440.70;1758844;80;21063;-83
2021/12/13 10:05:36;;;;;;;15.88;7.97;;;;;;;3.66;81.63;99449.22;1763806;79;21303;-83
2021/12/13 10:08:09;;;;;;;14.95;6.92;;;;;;;3.69;81.81;99450.11;1767397;79;20981;-82
2021/12/13 10:10:55;;;;;;;13.28;7.20;;;;;;;3.66;81.37;99449.22;1761773;80;21039;-83
2021/12/13 10:13:27;;;;;;;13.70;6.22;;;;;;;3.63;81.35;99450.06;1757061;81;21015;-81
2021/12/13 10:15:59;;;;;;;13.62;5.83;;;;;;;3.61;81.24;99449.19;1759038;80;20995;-84
2021/12/13 10:18:31;;;;;;;14.00;5.87;;;;;;;3.61;81.42;99456.05;1770158;80;21016;-81
2021/12/13 10:21:17;;;;;;;15.58;6.25;;;;;;;3.62;81.80;99450.93;1758606;81;21109;-83
2021/12/13 10:23:49;;;;;;;11.08;6.15;;;;;;;3.70;81.72;99446.70;1752398;80;21011;-82
2021/12/13 10:26:17;;;;;;;15.78;6.28;;;;;;;3.68;81.81;99439.41;1773279;80;20942;-81
2021/12/13 10:28:59;;;;;;;12.43;7.10;;;;;;;3.73;82.03;99446.72;1760389;79;21065;-82
2021/12/13 10:31:38;;;;;;;15.70;7.25;;;;;;;3.72;82.02;99444.13;1753880;81;21067;-82
2021/12/13 10:34:10;;;;;;;15.23;7.03;;;;;;;3.71;81.59;99437.27;1757605;81;20980;-81
2021/12/13 10:36:40;;;;;;;13.80;7.12;;;;;;;3.79;81.93;99442.91;1754438;80;20933;-82
2021/12/13 10:39:12;;;;;;;18.40;6.78;;;;;;;3.83;81.76;99438.65;1759239;80;20972;-80
2021/12/13 10:41:44;;;;;;;;;;;;;;;3.82;81.90;99443.77;1757339;81;21028;-84
2021/12/13 10:44:16;;;;;;;17.10;8.00;;;;;;;3.85;81.62;99439.52;1708528;79;20179;-88
2021/12/13 10:46:47;;;;;;;15.75;7.40;;;;;;;3.81;81.36;99445.49;1707628;82;21048;-83
2021/12/13 10:49:19;;;;;;;14.28;7.15;;;;;;;3.75;81.44;99430.02;1719170;81;21023;-84
2021/12/13 10:51:55;;;;;;;12.47;6.47;;;;;;;3.81;81.47;99444.20;1704199;82;21046;-81
2021/12/13 10:54:27;;;;;;;18.30;6.83;;;;;;;3.81;81.63;99437.78;1703913;82;20995;-82
2021/12/13 10:57:02;;;;;;;15.60;7.15;;;;;;;3.80;81.57;99432.22;1704754;82;21059;-77
2021/12/13 10:59:33;;;;;;;14.75;7.72;;;;;;;3.80;81.78;99436.08;1696225;82;21024;-86
2021/12/13 11:02:11;;;;;;;15.25;7.37;;;;;;;3.88;82.07;99436.98;1705759;82;21055;-79
2021/12/13 11:04:46;;;;;;;18.23;8.38;;;;;;;3.88;82.08;99430.56;1699418;82;21080;-80
2021/12/13 11:07:14;;;;;;;15.13;8.40;;;;;;;3.93;81.88;99434.44;1704030;82;21059;-78
2021/12/13 11:09:44;;;;;;;15.83;7.97;;;;;;;3.92;81.58;99436.55;1706257;82;21026;-78
2021/12/13 11:12:19;;;;;;;22.65;9.23;;;;;;;3.96;81.61;99435.77;1702152;82;21512;-80
2021/12/13 11:14:50;;;;;;;18.60;7.83;;;;;;;3.96;81.43;99443.48;1709394;82;21078;-87
2021/12/13 11:17:21;;;;;;;18.25;6.92;;;;;;;3.90;81.43;99445.58;1710167;82;21039;-82
2021/12/13 11:19:55;;;;;;;19.70;6.67;;;;;;;3.87;81.34;99445.54;1714487;82;21075;-82
2021/12/13 11:22:29;;;;;;;18.67;6.90;;;;;;;3.88;81.42;99445.98;1704813;82;21358;-82
2021/12/13 11:25:16;;;;;;;15.78;6.87;;;;;;;3.84;81.83;99441.67;1713503;82;21054;-81
2021/12/13 11:27:44;;;;;;;14.43;6.80;;;;;;;3.86;82.13;99436.12;1703101;82;21032;-83
2021/12/13 11:30:16;;;;;;;14.93;7.00;;;;;;;3.77;82.06;99439.45;1714167;81;21043;-84
2021/12/13 11:33:10;;;;;;;17.40;8.28;;;;;;;3.82;82.27;99443.38;1712687;80;20984;-84
2021/12/13 11:36:15;;;;;;;14.75;8.00;;;;;;;3.83;82.24;99449.38;1704585;82;21067;-81
2021/12/13 11:39:18;;;;;;;15.70;8.18;;;;;;;3.85;82.11;99448.52;1706677;82;20988;-82
2021/12/13 11:42:44;;;;;;;16.50;7.35;;;;;;;3.85;81.83;99448.52;1711902;82;21015;-82
2021/12/13 11:45:41;;;;;;;19.65;8.35;;;;;;;3.83;81.71;99451.51;1710225;80;21034;-83
2021/12/13 11:48:58;;;;;;;16.02;7.28;;;;;;;3.79;81.90;99448.05;1709754;82;21102;-82
2021/12/13 11:51:59;;;;;;;15.32;7.58;;;;;;;3.74;81.52;99452.31;1704232;82;21090;-80
2021/12/13 11:55:20;;;;;;;16.52;7.28;;;;;;;3.73;81.92;99458.72;1706322;82;21038;-82
2021/12/13 11:58:27;;;;;;;16.25;7.30;;;;;;;3.67;82.26;99450.95;1710321;82;21512;-82
2021/12/13 12:01:39;;;;;;;13.62;7.03;;;;;;;3.64;82.39;99450.52;1706604;82;21695;-80
2021/12/13 12:05:05;;;;;;;15.65;7.08;;;;;;;3.65;82.60;99446.23;1703264;82;21078;-87
2021/12/13 12:07:48;;;;;;;17.07;8.20;;;;;;;3.72;82.57;99445.41;1705769;79;21069;-84
2021/12/13 12:10:26;;;;;;;21.02;7.53;;;;;;;3.68;82.66;99444.95;1654409;80;21024;-84
2021/12/13 12:13:32;;;;;;;18.48;9.38;;;;;;;3.74;82.51;99438.16;1644615;82;21032;-82
2021/12/13 12:16:03;;;;;;;20.45;8.50;;;;;;;3.68;82.56;99438.13;1714786;82;21042;-81
2021/12/13 12:18:35;;;;;;;12.80;7.60;;;;;;;3.64;82.51;99437.66;1713223;82;21030;-81
2021/12/13 12:21:43;;;;;;;17.85;7.80;;;;;;;3.66;82.18;99449.22;1711934;82;20999;-81
2021/12/13 12:24:30;;;;;;;26.73;8.13;;;;;;;3.55;82.84;99441.42;1714273;82;21051;-80
2021/12/13 12:27:08;;;;;;;14.93;7.58;;;;;;;3.55;82.61;99442.71;1703981;82;21054;-80
2021/12/13 12:29:46;;;;;;;15.38;8.38;;;;;;;3.51;83.04;99452.09;1699573;82;21614;-82
2021/12/13 12:32:23;;;;;;;19.00;7.58;;;;;;;3.50;82.87;99452.97;1714538;82;21094;-81
2021/12/13 12:35:00;;;;;;;14.40;7.20;;;;;;;3.55;83.26;99455.56;1719135;83;21049;-82
2021/12/13 12:37:59;;;;;;;13.28;7.22;;;;;;;3.58;83.27;99451.32;1713468;82;21055;-81
2021/12/13 12:40:50;;;;;;;18.50;8.50;;;;;;;3.58;83.45;99459.03;1678989;83;21104;-79